Time;durP1;ratioP1;P1;durP2;ratioP2;P2;SDS_P1;SDS_P2;PMS_P1;PMS_P2;Temp;Humidity;BMP_temperature;BMP_pressure;BME280_temperature;BME280_humidity;BME280_pressure;Samples;Min_cycle;Max_cycle;Signal;HPM_P1;HPM_P2
2022/04/08 00:00:27;;;;;;;6.75;1.85;;;6.20;99.90;;;;;;4385844;28;10021720;-66
2022/04/08 00:02:53;;;;;;;5.45;2.00;;;6.10;99.90;;;;;;5030976;28;21349;-66
2022/04/08 00:05:19;;;;;;;6.10;2.10;;;6.10;99.90;;;;;;5046450;28;20119;-66
2022/04/08 00:07:45;;;;;;;7.20;1.92;;;6.10;99.90;;;;;;5040953;28;20056;-66
2022/04/08 00:10:12;;;;;;;4.88;1.85;;;6.10;99.90;;;;;;5031477;28;20049;-66
2022/04/08 00:12:37;;;;;;;6.85;2.20;;;6.10;99.90;;;;;;5045989;28;20029;-66
2022/04/08 00:15:04;;;;;;;6.18;2.20;;;6.10;99.90;;;;;;5037258;28;20440;-66
2022/04/08 00:17:30;;;;;;;4.97;2.50;;;6.10;99.90;;;;;;5043780;28;20580;-65
2022/04/08 00:19:55;;;;;;;5.82;2.10;;;6.10;99.90;;;;;;5031886;28;20165;-66
2022/04/08 00:22:23;;;;;;;3.55;1.92;;;6.10;99.90;;;;;;5044337;28;20052;-66
2022/04/08 00:24:49;;;;;;;6.90;2.10;;;6.00;99.90;;;;;;5032732;28;20025;-66
2022/04/08 00:27:15;;;;;;;5.70;2.47;;;6.00;99.90;;;;;;5035943;28;20040;-66
2022/04/08 00:29:41;;;;;;;5.30;1.95;;;6.00;99.90;;;;;;5053593;28;20477;-66
2022/04/08 00:32:07;;;;;;;3.60;1.90;;;6.00;99.90;;;;;;5034295;28;20027;-66
2022/04/08 00:34:32;;;;;;;5.70;2.20;;;6.10;99.90;;;;;;5079329;28;20040;-66
2022/04/08 00:36:58;;;;;;;6.60;2.40;;;6.10;99.90;;;;;;5086706;28;20130;-66
2022/04/08 00:39:24;;;;;;;6.93;2.50;;;6.20;99.90;;;;;;5088834;28;20409;-66
2022/04/08 00:41:50;;;;;;;4.47;2.08;;;6.20;99.90;;;;;;5095120;28;20046;-66
2022/04/08 00:44:16;;;;;;;7.07;2.60;;;6.30;99.90;;;;;;5097467;28;20438;-66
2022/04/08 00:46:43;;;;;;;6.88;2.47;;;6.30;99.90;;;;;;5089518;28;20027;-66
2022/04/08 00:49:11;;;;;;;5.47;2.20;;;6.30;99.90;;;;;;5090021;28;20039;-66
2022/04/08 00:51:37;;;;;;;3.67;1.95;;;6.30;99.90;;;;;;5090957;28;20032;-66
2022/04/08 00:54:03;;;;;;;4.05;2.00;;;6.30;99.90;;;;;;5092223;28;20028;-66
2022/04/08 00:56:30;;;;;;;4.63;2.22;;;6.30;99.90;;;;;;5086448;28;20011;-66
2022/04/08 00:58:57;;;;;;;7.55;2.30;;;6.30;99.90;;;;;;5097991;28;20520;-66
2022/04/08 01:01:26;;;;;;;3.90;2.20;;;6.20;99.90;;;;;;5102712;28;20158;-66
2022/04/08 01:03:52;;;;;;;3.90;1.88;;;6.20;99.90;;;;;;5103053;28;20388;-66
2022/04/08 01:06:22;;;;;;;2.92;1.80;;;6.20;99.90;;;;;;5098437;28;20039;-66
2022/04/08 01:08:49;;;;;;;3.50;1.98;;;6.20;99.90;;;;;;5091983;28;20028;-66
2022/04/08 01:11:15;;;;;;;4.68;2.20;;;6.20;99.90;;;;;;5088944;28;20021;-67
2022/04/08 01:13:41;;;;;;;7.70;2.90;;;6.20;99.90;;;;;;5101825;28;20509;-66
2022/04/08 01:16:08;;;;;;;4.93;2.15;;;6.20;99.90;;;;;;5092543;28;20024;-66
2022/04/08 01:18:33;;;;;;;4.85;2.15;;;6.20;99.90;;;;;;5094529;28;20035;-65
2022/04/08 01:21:04;;;;;;;4.32;1.90;;;6.20;99.90;;;;;;5100594;28;20515;-66
2022/04/08 01:23:30;;;;;;;5.13;1.80;;;6.20;99.90;;;;;;5091968;28;20020;-65
2022/04/08 01:25:55;;;;;;;3.55;2.00;;;6.10;99.90;;;;;;5093999;28;20027;-65
2022/04/08 01:28:21;;;;;;;5.22;2.05;;;6.10;99.90;;;;;;5088802;28;20044;-66
2022/04/08 01:30:46;;;;;;;6.18;1.85;;;6.10;99.90;;;;;;5090879;28;20440;-66
2022/04/08 01:33:12;;;;;;;3.22;1.80;;;6.10;99.90;;;;;;5099186;28;20057;-66
2022/04/08 01:35:38;;;;;;;3.22;1.60;;;6.10;99.90;;;;;;5097522;28;20667;-66
2022/04/08 01:38:03;;;;;;;2.92;1.67;;;6.10;99.90;;;;;;5097993;28;20028;-66
2022/04/08 01:40:29;;;;;;;2.25;1.20;;;6.20;99.90;;;;;;5095448;28;20024;-66
2022/04/08 01:42:54;;;;;;;4.70;1.33;;;6.20;99.90;;;;;;5104042;28;20059;-66
2022/04/08 01:45:20;;;;;;;5.55;1.38;;;6.20;99.90;;;;;;5087837;28;20020;-66
2022/04/08 01:47:46;;;;;;;4.78;1.50;;;6.20;99.90;;;;;;5089569;28;20040;-66
2022/04/08 01:50:15;;;;;;;3.10;1.20;;;6.20;99.90;;;;;;5095119;28;20027;-66
2022/04/08 01:52:41;;;;;;;2.42;1.30;;;6.20;99.90;;;;;;5094235;28;20066;-66
2022/04/08 01:55:07;;;;;;;2.97;1.00;;;6.20;99.90;;;;;;5087126;28;20487;-66
2022/04/08 01:57:33;;;;;;;6.53;1.20;;;6.20;99.90;;;;;;5091080;28;20008;-66
2022/04/08 01:59:59;;;;;;;3.25;1.23;;;6.30;99.90;;;;;;5104294;28;20111;-66
2022/04/08 02:02:25;;;;;;;1.65;0.95;;;6.20;99.90;;;;;;5091726;28;20135;-66
2022/04/08 02:04:50;;;;;;;3.05;0.88;;;6.30;99.90;;;;;;5098469;28;20415;-66
2022/04/08 02:07:16;;;;;;;4.63;1.05;;;6.20;99.90;;;;;;5098295;28;20031;-66
2022/04/08 02:09:41;;;;;;;3.15;1.25;;;6.10;99.90;;;;;;5096936;28;20019;-66
2022/04/08 02:12:07;;;;;;;5.32;1.40;;;6.10;99.90;;;;;;5090718;28;20028;-66
2022/04/08 02:14:33;;;;;;;2.88;1.00;;;6.10;99.90;;;;;;5099990;28;20102;-66
2022/04/08 02:16:58;;;;;;;2.65;1.17;;;6.10;99.90;;;;;;5097143;28;20020;-66
2022/04/08 02:19:24;;;;;;;3.72;1.30;;;6.00;99.90;;;;;;5095878;28;20047;-67
2022/04/08 02:21:50;;;;;;;1.98;0.95;;;6.00;99.90;;;;;;5099588;28;20031;-66
2022/04/08 02:24:16;;;;;;;3.97;1.30;;;6.00;99.90;;;;;;5099530;28;20439;-66
2022/04/08 02:26:41;;;;;;;2.53;1.30;;;6.00;99.90;;;;;;5091198;28;20023;-66
2022/04/08 02:29:07;;;;;;;3.90;1.25;;;6.00;99.90;;;;;;5096953;28;20047;-66
2022/04/08 02:31:33;;;;;;;5.35;1.40;;;5.90;99.90;;;;;;5097379;28;20032;-66
2022/04/08 02:33:58;;;;;;;3.95;1.50;;;5.90;99.90;;;;;;5088729;28;20470;-66
2022/04/08 02:36:24;;;;;;;3.95;1.58;;;5.90;99.90;;;;;;5091805;28;20024;-65
2022/04/08 02:38:49;;;;;;;5.22;1.80;;;5.90;99.90;;;;;;5099120;28;20024;-66
2022/04/08 02:41:15;;;;;;;4.82;1.95;;;5.80;99.90;;;;;;5093312;28;20080;-66
2022/04/08 02:43:40;;;;;;;5.22;1.90;;;5.80;99.90;;;;;;5091800;28;20024;-66
2022/04/08 02:46:06;;;;;;;5.18;2.20;;;5.70;99.90;;;;;;5092465;28;20031;-66
2022/04/08 02:48:32;;;;;;;3.53;2.10;;;5.70;99.90;;;;;;5092243;28;20479;-66
2022/04/08 02:50:57;;;;;;;3.17;1.80;;;5.70;99.90;;;;;;5095148;28;20027;-66
2022/04/08 02:53:23;;;;;;;5.90;2.20;;;5.60;99.90;;;;;;5105470;28;20546;-66
2022/04/08 02:55:48;;;;;;;4.22;1.60;;;5.60;99.90;;;;;;5102744;28;20046;-66
2022/04/08 02:58:14;;;;;;;4.22;1.67;;;5.70;99.90;;;;;;5096800;28;20024;-66
2022/04/08 03:00:40;;;;;;;3.20;1.60;;;5.60;99.90;;;;;;5089230;28;20119;-66
2022/04/08 03:03:06;;;;;;;4.07;1.70;;;5.60;99.90;;;;;;5088569;28;20065;-66
2022/04/08 03:05:31;;;;;;;5.43;1.88;;;5.60;99.90;;;;;;5092015;28;20039;-66
2022/04/08 03:07:57;;;;;;;5.47;1.88;;;5.60;99.90;;;;;;5090524;28;20062;-66
2022/04/08 03:10:22;;;;;;;5.78;1.70;;;5.60;99.90;;;;;;5092955;28;20028;-66
2022/04/08 03:12:48;;;;;;;5.90;1.90;;;5.60;99.90;;;;;;5089732;28;20661;-66
2022/04/08 03:15:14;;;;;;;6.03;1.70;;;5.60;99.90;;;;;;5086426;28;20028;-67
2022/04/08 03:17:39;;;;;;;3.15;1.60;;;5.60;99.90;;;;;;5093279;28;20065;-66
2022/04/08 03:20:06;;;;;;;4.45;1.60;;;5.60;99.90;;;;;;5097139;28;20035;-66
2022/04/08 03:22:32;;;;;;;3.80;1.70;;;5.60;99.90;;;;;;5098389;28;20682;-66
2022/04/08 03:24:57;;;;;;;3.83;1.88;;;5.60;99.90;;;;;;5095063;28;20044;-66
2022/04/08 03:27:23;;;;;;;5.22;1.70;;;5.70;99.90;;;;;;5091837;28;20032;-66
2022/04/08 03:29:49;;;;;;;4.03;1.73;;;5.60;99.90;;;;;;5087138;28;20134;-66
2022/04/08 03:32:15;;;;;;;6.72;1.92;;;5.60;99.90;;;;;;5090148;28;20076;-66
2022/04/08 03:34:40;;;;;;;3.13;1.88;;;5.60;99.90;;;;;;5087678;28;20072;-66
2022/04/08 03:37:06;;;;;;;3.83;1.80;;;5.50;99.90;;;;;;5094307;28;20024;-66
2022/04/08 03:39:32;;;;;;;3.13;1.55;;;5.50;99.90;;;;;;5092849;28;20030;-66
2022/04/08 03:41:57;;;;;;;6.63;2.00;;;5.40;99.90;;;;;;5087817;28;20542;-66
2022/04/08 03:44:23;;;;;;;2.28;1.88;;;5.30;99.90;;;;;;5089355;28;20035;-66
2022/04/08 03:46:49;;;;;;;3.38;2.03;;;5.30;99.90;;;;;;5089232;28;20023;-66
2022/04/08 03:49:15;;;;;;;4.13;1.52;;;5.20;99.90;;;;;;5086468;28;20039;-66
2022/04/08 03:51:42;;;;;;;2.78;1.55;;;5.20;99.90;;;;;;5089725;28;20034;-66
2022/04/08 03:54:08;;;;;;;3.45;1.40;;;5.10;99.90;;;;;;5091998;28;20020;-66
2022/04/08 03:56:35;;;;;;;4.65;1.50;;;5.00;99.90;;;;;;5091155;28;20020;-66
2022/04/08 03:59:00;;;;;;;7.03;1.80;;;5.00;99.90;;;;;;5101225;28;20045;-66
2022/04/08 04:01:26;;;;;;;3.25;1.50;;;5.00;99.90;;;;;;5088351;28;20421;-66
2022/04/08 04:03:52;;;;;;;2.28;1.55;;;5.00;99.90;;;;;;5084326;28;20024;-65
2022/04/08 04:06:18;;;;;;;3.45;1.73;;;5.00;99.90;;;;;;5086796;28;20388;-66
2022/04/08 04:08:44;;;;;;;4.03;1.52;;;5.00;99.90;;;;;;5087058;28;20048;-66
2022/04/08 04:11:14;;;;;;;5.72;1.83;;;5.00;99.90;;;;;;5092479;28;20040;-66
2022/04/08 04:13:43;;;;;;;5.93;2.00;;;5.00;99.90;;;;;;5082887;28;20054;-66
2022/04/08 04:16:09;;;;;;;4.18;1.70;;;5.00;99.90;;;;;;5086445;28;20028;-66
2022/04/08 04:18:36;;;;;;;4.30;2.00;;;5.00;99.90;;;;;;5088216;28;20020;-66
2022/04/08 04:21:02;;;;;;;6.50;2.35;;;5.00;99.90;;;;;;5091612;28;20084;-66
2022/04/08 04:23:28;;;;;;;4.10;1.60;;;5.00;99.90;;;;;;5088877;28;20024;-66
2022/04/08 04:25:53;;;;;;;5.28;1.73;;;5.10;99.90;;;;;;5094431;28;20499;-66
2022/04/08 04:28:19;;;;;;;4.53;1.50;;;5.10;99.90;;;;;;5099780;28;20052;-66
2022/04/08 04:30:44;;;;;;;6.30;1.60;;;5.10;99.90;;;;;;5092858;28;20016;-66
2022/04/08 04:33:11;;;;;;;4.25;1.80;;;5.10;99.90;;;;;;5091032;28;20168;-66
2022/04/08 04:35:37;;;;;;;7.22;1.88;;;5.10;99.90;;;;;;5092327;28;20062;-66
2022/04/08 04:38:03;;;;;;;5.47;2.05;;;5.00;99.90;;;;;;5093711;28;20059;-67
2022/04/08 04:40:29;;;;;;;6.45;1.67;;;5.00;99.90;;;;;;5096235;28;20471;-66
2022/04/08 04:42:55;;;;;;;5.82;1.77;;;5.00;99.90;;;;;;5092098;28;20024;-67
2022/04/08 04:45:22;;;;;;;5.82;1.73;;;5.00;99.90;;;;;;5096873;28;20138;-66
2022/04/08 04:47:47;;;;;;;4.28;1.75;;;5.00;99.90;;;;;;5099893;28;20827;-66
2022/04/08 04:50:13;;;;;;;7.32;2.10;;;4.90;99.90;;;;;;5093351;28;20107;-66
2022/04/08 04:52:38;;;;;;;4.90;1.50;;;5.00;99.90;;;;;;5088080;28;20035;-66
2022/04/08 04:55:05;;;;;;;3.78;1.60;;;4.90;99.90;;;;;;5094096;28;20023;-66
2022/04/08 04:57:31;;;;;;;6.95;2.03;;;5.00;99.90;;;;;;5091471;28;20032;-66
2022/04/08 04:59:56;;;;;;;4.18;1.60;;;5.00;99.90;;;;;;5092737;28;20569;-65
2022/04/08 05:02:22;;;;;;;3.83;1.60;;;5.00;99.90;;;;;;5088468;28;20128;-66
2022/04/08 05:04:48;;;;;;;5.97;1.55;;;4.90;99.90;;;;;;5086991;28;20031;-66
2022/04/08 05:07:14;;;;;;;5.68;1.95;;;4.90;99.90;;;;;;5087455;28;20649;-66
2022/04/08 05:09:40;;;;;;;2.40;1.58;;;4.90;99.90;;;;;;5090902;28;20055;-66
2022/04/08 05:12:07;;;;;;;4.53;1.75;;;4.90;99.90;;;;;;5089324;28;20093;-67
2022/04/08 05:14:33;;;;;;;5.07;1.80;;;4.90;99.90;;;;;;5099926;28;20027;-66
2022/04/08 05:16:58;;;;;;;5.97;2.08;;;4.90;99.90;;;;;;5098116;28;20039;-67
2022/04/08 05:19:24;;;;;;;5.97;2.30;;;4.90;99.90;;;;;;5097588;28;20024;-66
2022/04/08 05:21:52;;;;;;;9.05;2.97;;;4.90;99.90;;;;;;5092218;28;20468;-66
2022/04/08 05:24:18;;;;;;;6.20;2.33;;;5.00;99.90;;;;;;5085718;28;20032;-66
2022/04/08 05:26:44;;;;;;;8.32;2.45;;;5.00;99.90;;;;;;5093264;28;20688;-66
2022/04/08 05:29:09;;;;;;;7.70;2.28;;;5.00;99.90;;;;;;5090923;28;20044;-66
2022/04/08 05:31:35;;;;;;;4.95;2.70;;;5.00;99.90;;;;;;5091360;28;20572;-67
2022/04/08 05:34:01;;;;;;;7.95;2.50;;;5.10;99.90;;;;;;5092811;28;20024;-67
2022/04/08 05:36:27;;;;;;;6.05;2.63;;;5.10;99.90;;;;;;5104925;28;20028;-67
2022/04/08 05:38:53;;;;;;;3.60;2.42;;;5.10;99.90;;;;;;5089131;28;20127;-66
2022/04/08 05:41:18;;;;;;;7.22;2.83;;;5.10;99.90;;;;;;5089152;28;20122;-66
2022/04/08 05:43:45;;;;;;;5.90;2.85;;;5.10;99.90;;;;;;5097246;28;20020;-67
2022/04/08 05:46:11;;;;;;;6.10;2.80;;;5.20;99.90;;;;;;5096153;28;20063;-67
2022/04/08 05:48:37;;;;;;;3.92;2.47;;;5.10;99.90;;;;;;5094464;28;20625;-67
2022/04/08 05:51:02;;;;;;;4.60;2.50;;;5.10;99.90;;;;;;5094622;28;20024;-67
2022/04/08 05:53:28;;;;;;;5.43;2.67;;;5.20;99.90;;;;;;5105423;28;20187;-67
2022/04/08 05:55:58;;;;;;;7.72;3.20;;;5.20;99.90;;;;;;5088930;28;21507;-67
2022/04/08 05:58:24;;;;;;;6.65;3.80;;;5.20;99.90;;;;;;5099319;28;21229;-68
2022/04/08 06:00:50;;;;;;;5.43;3.00;;;5.20;99.90;;;;;;5088908;28;20050;-67
2022/04/08 06:03:16;;;;;;;6.35;3.40;;;5.20;99.90;;;;;;5089136;28;20028;-67
2022/04/08 06:05:42;;;;;;;5.60;3.33;;;5.20;99.90;;;;;;5087884;28;20028;-67
2022/04/08 06:08:07;;;;;;;7.88;3.35;;;5.20;99.90;;;;;;5104142;28;20513;-67
2022/04/08 06:10:33;;;;;;;6.30;2.85;;;5.30;99.90;;;;;;5094490;28;20062;-68
2022/04/08 06:13:01;;;;;;;8.40;3.47;;;5.30;99.90;;;;;;5091180;28;20245;-67
2022/04/08 06:15:27;;;;;;;7.95;3.58;;;5.40;99.90;;;;;;5096114;28;20105;-67
2022/04/08 06:17:55;;;;;;;8.90;2.70;;;5.50;99.90;;;;;;5092786;28;20022;-67
2022/04/08 06:20:21;;;;;;;9.07;2.53;;;5.50;99.90;;;;;;5089419;28;20664;-66
2022/04/08 06:22:48;;;;;;;6.20;2.45;;;5.50;99.90;;;;;;5097310;28;20020;-66
2022/04/08 06:25:16;;;;;;;6.10;2.17;;;5.50;99.90;;;;;;5090609;28;20444;-66
2022/04/08 06:27:46;;;;;;;6.90;2.30;;;5.50;99.90;;;;;;5092308;28;20027;-67
2022/04/08 06:30:14;;;;;;;7.72;3.00;;;5.50;99.90;;;;;;5090273;28;20044;-67
2022/04/08 06:32:41;;;;;;;8.55;2.60;;;5.40;99.90;;;;;;5098464;28;20066;-67
2022/04/08 06:35:07;;;;;;;8.13;2.67;;;5.40;99.90;;;;;;5085604;28;20056;-67
2022/04/08 06:37:32;;;;;;;5.65;2.58;;;5.40;99.90;;;;;;5094049;28;20012;-67
2022/04/08 06:40:11;;;;;;;6.75;2.55;;;5.40;99.90;;;;;;5097895;28;20027;-67
2022/04/08 06:42:38;;;;;;;7.78;2.72;;;5.30;99.90;;;;;;5088292;28;20431;-70
2022/04/08 06:45:05;;;;;;;8.13;2.63;;;5.30;99.90;;;;;;5081345;28;20027;-67
2022/04/08 06:47:30;;;;;;;9.48;3.35;;;5.30;99.90;;;;;;5093526;28;20514;-67
2022/04/08 06:49:57;;;;;;;5.57;2.53;;;5.20;99.90;;;;;;5090438;28;20060;-67
2022/04/08 06:52:23;;;;;;;6.75;2.60;;;5.20;99.90;;;;;;5088400;28;20016;-67
2022/04/08 06:54:48;;;;;;;6.70;2.88;;;5.20;99.90;;;;;;5089642;28;20542;-73
2022/04/08 06:57:14;;;;;;;10.02;3.28;;;5.20;99.90;;;;;;5097174;28;20463;-74
2022/04/08 06:59:41;;;;;;;5.85;3.03;;;5.20;99.90;;;;;;5086427;28;20024;-74
2022/04/08 07:02:07;;;;;;;8.15;2.88;;;5.20;99.90;;;;;;5097482;28;20051;-74
2022/04/08 07:04:33;;;;;;;7.05;2.78;;;5.20;99.90;;;;;;5101097;28;20146;-74
2022/04/08 07:06:58;;;;;;;6.60;3.20;;;5.30;99.90;;;;;;5100292;28;20551;-74
2022/04/08 07:09:24;;;;;;;8.43;2.78;;;5.30;99.90;;;;;;5089663;28;20092;-74
2022/04/08 07:11:50;;;;;;;5.18;2.40;;;5.40;99.90;;;;;;5101863;28;20035;-74
2022/04/08 07:14:15;;;;;;;6.55;2.47;;;5.50;99.90;;;;;;5099137;28;20471;-74
2022/04/08 07:16:43;;;;;;;6.72;2.53;;;5.70;99.90;;;;;;5081675;28;20092;-75
2022/04/08 07:19:12;;;;;;;4.82;2.40;;;5.90;99.90;;;;;;5083655;28;20028;-75
2022/04/08 07:21:38;;;;;;;6.20;2.22;;;6.20;99.90;;;;;;5098669;28;20028;-75
2022/04/08 07:24:04;;;;;;;5.40;2.63;;;6.40;99.90;;;;;;5096699;28;20037;-75
2022/04/08 07:26:29;;;;;;;5.35;2.25;;;6.70;99.90;;;;;;5087771;28;20055;-75
2022/04/08 07:28:55;;;;;;;5.03;2.33;;;7.00;99.90;;;;;;5085843;28;20075;-75
2022/04/08 07:31:21;;;;;;;4.25;1.73;;;7.20;99.90;;;;;;5096798;28;20095;-75
2022/04/08 07:33:47;;;;;;;3.10;2.05;;;7.40;99.90;;;;;;5094550;28;20035;-75
2022/04/08 07:36:13;;;;;;;6.80;2.00;;;7.60;99.90;;;;;;5094246;28;20028;-76
2022/04/08 07:38:39;;;;;;;5.45;1.70;;;7.70;99.90;;;;;;5085802;28;20056;-75
2022/04/08 07:41:04;;;;;;;4.78;1.80;;;7.80;99.90;;;;;;5085661;28;20028;-75
2022/04/08 07:43:30;;;;;;;4.07;1.60;;;7.90;99.90;;;;;;5085231;28;20064;-75
2022/04/08 07:45:56;;;;;;;5.60;1.75;;;8.00;99.90;;;;;;5089248;28;20035;-75
2022/04/08 07:48:21;;;;;;;4.78;1.80;;;8.10;99.90;;;;;;5086069;28;20431;-75
2022/04/08 07:50:47;;;;;;;4.28;1.40;;;8.30;99.90;;;;;;5099982;28;20444;-75
2022/04/08 07:53:13;;;;;;;5.00;1.95;;;8.40;99.90;;;;;;5093733;28;20039;-76
2022/04/08 07:55:39;;;;;;;4.13;1.80;;;8.40;99.90;;;;;;5085897;28;20020;-75
2022/04/08 07:58:05;;;;;;;7.07;1.92;;;8.40;99.90;;;;;;5090859;28;20013;-76
2022/04/08 08:00:32;;;;;;;4.35;2.00;;;8.40;99.90;;;;;;5091893;28;20035;-75
2022/04/08 08:02:58;;;;;;;6.07;2.05;;;8.40;99.90;;;;;;5103682;28;20034;-76
2022/04/08 08:05:24;;;;;;;4.57;2.00;;;8.40;99.90;;;;;;5082091;28;20028;-75
2022/04/08 08:07:52;;;;;;;8.35;1.98;;;8.40;99.90;;;;;;5089861;28;20097;-75
2022/04/08 08:10:22;;;;;;;4.72;1.80;;;8.30;99.90;;;;;;5085050;28;20028;-75
2022/04/08 08:12:49;;;;;;;5.07;1.90;;;8.10;99.90;;;;;;5088323;28;20105;-75
2022/04/08 08:15:15;;;;;;;5.82;2.25;;;8.00;99.90;;;;;;5092985;28;20016;-75
2022/04/08 08:17:41;;;;;;;6.50;1.75;;;8.00;99.90;;;;;;5092826;28;20035;-75
2022/04/08 08:20:08;;;;;;;7.78;1.90;;;8.00;99.90;;;;;;5092062;28;20028;-75
2022/04/08 08:22:35;;;;;;;3.80;1.95;;;8.00;99.90;;;;;;5105389;28;20034;-75
2022/04/08 08:25:01;;;;;;;4.40;1.88;;;8.00;99.90;;;;;;5089608;28;20345;-75
2022/04/08 08:27:27;;;;;;;5.28;2.05;;;8.10;99.90;;;;;;5090434;28;20020;-75
2022/04/08 08:29:53;;;;;;;7.40;1.83;;;8.20;99.90;;;;;;5088717;28;20100;-76
2022/04/08 08:32:18;;;;;;;6.15;1.95;;;8.30;99.90;;;;;;5089643;28;20109;-75
2022/04/08 08:34:44;;;;;;;5.45;1.70;;;8.40;99.90;;;;;;5100895;28;20032;-76
2022/04/08 08:37:09;;;;;;;4.20;1.33;;;8.40;99.90;;;;;;5089836;28;20457;-75
2022/04/08 08:39:35;;;;;;;3.10;1.50;;;8.50;99.90;;;;;;5102677;28;20106;-75
2022/04/08 08:42:03;;;;;;;3.58;1.40;;;8.50;99.90;;;;;;5091253;28;20202;-76
2022/04/08 08:44:29;;;;;;;4.18;1.45;;;8.60;99.90;;;;;;5088072;28;20668;-75
2022/04/08 08:46:57;;;;;;;5.18;1.85;;;8.70;99.90;;;;;;5088989;28;20552;-74
2022/04/08 08:49:29;;;;;;;4.18;1.35;;;8.60;99.90;;;;;;5092575;28;20526;-74
2022/04/08 08:51:58;;;;;;;4.53;1.75;;;8.70;99.90;;;;;;5093867;28;20048;-74
2022/04/08 08:54:24;;;;;;;6.80;1.70;;;8.70;99.90;;;;;;5093511;28;20024;-74
2022/04/08 08:56:50;;;;;;;4.57;1.15;;;8.70;99.90;;;;;;5088843;28;20081;-74
2022/04/08 08:59:16;;;;;;;3.58;1.48;;;8.70;99.90;;;;;;5093042;28;20023;-74
2022/04/08 09:01:41;;;;;;;5.07;1.70;;;8.70;99.90;;;;;;5089250;28;20056;-73
2022/04/08 09:04:07;;;;;;;9.95;2.90;;;8.70;99.90;;;;;;5101904;28;20039;-74
2022/04/08 09:06:43;;;;;;;10.18;3.00;;;8.80;99.90;;;;;;5088812;28;20073;-74
2022/04/08 09:09:11;;;;;;;7.03;2.92;;;8.70;99.90;;;;;;5099107;28;20031;-74
2022/04/08 09:11:37;;;;;;;6.80;2.20;;;8.70;99.90;;;;;;5093494;28;20247;-74
2022/04/08 09:14:04;;;;;;;5.63;2.20;;;8.70;99.90;;;;;;5091667;28;20035;-73
2022/04/08 09:16:35;;;;;;;5.70;2.25;;;8.60;99.90;;;;;;5092718;28;20402;-74
2022/04/08 09:19:12;;;;;;;5.63;2.22;;;8.60;99.90;;;;;;5091180;28;20035;-72
2022/04/08 09:21:38;;;;;;;4.82;2.15;;;8.70;99.90;;;;;;5087422;28;20024;-72
2022/04/08 09:24:07;;;;;;;5.07;1.50;;;8.70;99.90;;;;;;5086216;28;20024;-72
2022/04/08 09:26:36;;;;;;;2.63;1.48;;;8.70;99.90;;;;;;5087522;28;20093;-72
2022/04/08 09:29:04;;;;;;;4.30;1.70;;;8.70;99.90;;;;;;5085478;28;20066;-72
2022/04/08 09:31:30;;;;;;;6.82;2.35;;;8.70;99.90;;;;;;5087241;28;20038;-73
2022/04/08 09:33:55;;;;;;;4.57;2.30;;;8.60;99.90;;;;;;5082202;28;20426;-72
2022/04/08 09:36:32;;;;;;;7.18;2.22;;;8.60;99.90;;;;;;5087547;28;20038;-72
2022/04/08 09:38:57;;;;;;;4.85;2.00;;;8.60;99.90;;;;;;5094892;28;20043;-72
2022/04/08 09:41:40;;;;;;;5.45;2.30;;;8.70;99.90;;;;;;5099314;28;20024;-73
2022/04/08 09:44:07;;;;;;;4.65;2.30;;;8.70;99.90;;;;;;5091972;28;20036;-72
2022/04/08 09:46:33;;;;;;;3.83;2.30;;;8.80;99.90;;;;;;5094344;28;20326;-72
2022/04/08 09:48:59;;;;;;;4.85;2.47;;;8.90;99.90;;;;;;5093050;28;20032;-72
2022/04/08 09:51:27;;;;;;;5.30;2.70;;;8.90;99.90;;;;;;5091131;28;20740;-72
2022/04/08 09:53:57;;;;;;;5.45;2.15;;;8.90;99.90;;;;;;5088974;28;20546;-74
2022/04/08 09:56:26;;;;;;;4.57;2.30;;;9.10;99.90;;;;;;5099416;28;20079;-74
2022/04/08 09:59:02;;;;;;;5.85;2.33;;;9.10;99.90;;;;;;5091634;28;20028;-73
2022/04/08 10:01:28;;;;;;;5.70;2.50;;;9.10;99.90;;;;;;5093618;28;20027;-74
2022/04/08 10:03:54;;;;;;;4.35;3.28;;;9.20;99.90;;;;;;5086110;28;20404;-74
2022/04/08 10:06:21;;;;;;;9.20;4.55;;;9.20;99.90;;;;;;5088395;28;20323;-73
2022/04/08 10:08:48;;;;;;;6.65;3.50;;;9.30;99.90;;;;;;5092518;28;20031;-73
2022/04/08 10:11:54;;;;;;;4.90;2.65;;;9.30;99.90;;;;;;5096376;28;20605;-74
2022/04/08 10:14:35;;;;;;;8.80;3.95;;;9.30;99.90;;;;;;5090070;28;20024;-73
2022/04/08 10:17:01;;;;;;;3.90;3.00;;;9.30;99.90;;;;;;5088274;28;20042;-73
2022/04/08 10:19:29;;;;;;;5.32;2.65;;;9.30;99.90;;;;;;5086996;28;20703;-74
2022/04/08 10:21:59;;;;;;;3.97;2.80;;;9.30;99.90;;;;;;5087945;28;20024;-73
2022/04/08 10:24:28;;;;;;;7.60;2.88;;;9.30;99.90;;;;;;5106045;28;20580;-73
2022/04/08 10:26:56;;;;;;;6.93;4.40;;;9.40;99.90;;;;;;5088969;28;20484;-74
2022/04/08 10:29:21;;;;;;;7.32;5.55;;;9.40;99.90;;;;;;5092273;28;20327;-73
2022/04/08 10:31:55;;;;;;;8.73;5.40;;;9.30;99.90;;;;;;5090221;28;20476;-74
2022/04/08 10:34:22;;;;;;;9.27;6.03;;;9.30;99.90;;;;;;5086321;28;20468;-73
2022/04/08 10:36:48;;;;;;;6.13;5.45;;;9.30;99.90;;;;;;5087029;28;20027;-74
2022/04/08 10:39:21;;;;;;;6.70;4.45;;;9.30;99.90;;;;;;5089867;28;20464;-74
2022/04/08 10:41:49;;;;;;;;;;;9.30;99.90;;;;;;5107583;28;20028;-74
2022/04/08 10:44:16;;;;;;;6.60;5.47;;;9.30;99.90;;;;;;5103356;28;19911;-74
2022/04/08 10:46:51;;;;;;;7.25;3.95;;;9.20;99.90;;;;;;5090225;28;20035;-74
2022/04/08 10:49:18;;;;;;;7.28;5.00;;;9.20;99.90;;;;;;5086428;28;20475;-74
2022/04/08 10:51:48;;;;;;;5.97;5.15;;;9.20;99.90;;;;;;5106393;28;20255;-74
2022/04/08 10:54:15;;;;;;;6.97;4.22;;;9.20;99.90;;;;;;5093376;28;20020;-73
2022/04/08 10:56:40;;;;;;;7.10;4.93;;;9.20;99.90;;;;;;5086884;28;20426;-74
2022/04/08 10:59:07;;;;;;;9.50;6.10;;;9.20;99.90;;;;;;5087403;28;20081;-74
2022/04/08 11:01:35;;;;;;;8.32;5.85;;;9.20;99.90;;;;;;5088255;28;20036;-74
2022/04/08 11:04:03;;;;;;;10.68;6.60;;;9.20;99.90;;;;;;5085497;28;20426;-74
2022/04/08 11:06:36;;;;;;;9.57;6.50;;;9.10;99.90;;;;;;5089755;28;20472;-74
2022/04/08 11:09:14;;;;;;;7.25;5.40;;;9.10;99.90;;;;;;5086899;28;20024;-74
2022/04/08 11:11:42;;;;;;;6.75;5.50;;;9.20;99.90;;;;;;5086291;28;20032;-74
2022/04/08 11:14:09;;;;;;;7.65;5.22;;;9.20;99.90;;;;;;5089045;28;20302;-74
2022/04/08 11:16:39;;;;;;;7.40;4.75;;;9.20;99.90;;;;;;5086011;28;20095;-73
2022/04/08 11:19:08;;;;;;;15.57;8.68;;;9.20;99.90;;;;;;5096276;28;20024;-74
2022/04/08 11:21:37;;;;;;;12.95;7.47;;;9.30;99.90;;;;;;5089932;28;20415;-74
2022/04/08 11:24:05;;;;;;;11.25;8.23;;;9.30;99.90;;;;;;5093225;28;20213;-73
2022/04/08 11:26:47;;;;;;;8.55;5.65;;;9.40;99.90;;;;;;5106439;28;20035;-74
2022/04/08 11:29:19;;;;;;;9.90;5.13;;;9.40;99.90;;;;;;5089938;28;20079;-73
2022/04/08 11:31:46;;;;;;;6.63;4.65;;;9.40;99.90;;;;;;5105136;28;20070;-74
2022/04/08 11:34:15;;;;;;;8.82;4.65;;;9.40;99.90;;;;;;5096505;28;20036;-73
2022/04/08 11:36:42;;;;;;;6.82;4.28;;;9.50;99.90;;;;;;5093667;28;20019;-75
2022/04/08 11:39:09;;;;;;;6.15;4.07;;;9.50;99.90;;;;;;5089802;28;20385;-75
2022/04/08 11:41:35;;;;;;;5.38;4.32;;;9.60;99.90;;;;;;5089164;28;20427;-75
2022/04/08 11:44:03;;;;;;;7.10;4.30;;;9.60;99.90;;;;;;5087525;28;20172;-75
2022/04/08 11:46:29;;;;;;;7.32;3.90;;;9.60;99.90;;;;;;5085017;28;20229;-75
2022/04/08 11:48:55;;;;;;;6.45;4.20;;;9.60;99.90;;;;;;5090857;28;20388;-75
2022/04/08 11:51:21;;;;;;;6.15;3.83;;;9.50;99.90;;;;;;5090304;28;20023;-75
2022/04/08 11:53:52;;;;;;;8.18;4.97;;;9.40;99.90;;;;;;5092028;28;20571;-75
2022/04/08 11:56:23;;;;;;;5.45;4.10;;;9.50;99.90;;;;;;5095713;28;20392;-75
2022/04/08 11:58:57;;;;;;;7.90;4.25;;;9.40;99.90;;;;;;5089305;28;20024;-75
2022/04/08 12:01:23;;;;;;;9.02;4.25;;;9.40;99.90;;;;;;5090493;28;20032;-75
2022/04/08 12:03:53;;;;;;;6.55;4.18;;;9.30;99.90;;;;;;5085176;28;20027;-74
2022/04/08 12:06:19;;;;;;;4.72;3.78;;;9.30;99.90;;;;;;5085985;28;20118;-75
2022/04/08 12:08:47;;;;;;;6.00;4.55;;;9.30;99.90;;;;;;5087255;28;20027;-75
2022/04/08 12:11:13;;;;;;;8.38;4.65;;;9.20;99.90;;;;;;5096951;28;20023;-75
2022/04/08 12:13:40;;;;;;;8.77;6.35;;;9.20;99.90;;;;;;5088725;28;20080;-75
2022/04/08 12:16:09;;;;;;;8.52;5.57;;;9.20;99.90;;;;;;5087662;28;20077;-74
2022/04/08 12:18:35;;;;;;;8.52;6.00;;;9.10;99.90;;;;;;5088090;28;20516;-74
2022/04/08 12:21:05;;;;;;;9.43;5.07;;;9.00;99.90;;;;;;4730370;28;9999927;-74
2022/04/08 12:23:31;;;;;;;6.88;4.90;;;8.90;99.90;;;;;;5081160;28;20034;-72
2022/04/08 12:25:58;;;;;;;8.93;5.45;;;8.90;99.90;;;;;;5078272;28;20081;-71
2022/04/08 12:28:28;;;;;;;8.95;5.35;;;8.90;99.90;;;;;;5087947;28;20195;-72
2022/04/08 12:30:54;;;;;;;7.28;4.80;;;8.80;99.90;;;;;;5091181;28;20208;-72
2022/04/08 12:33:20;;;;;;;8.63;4.50;;;8.90;99.90;;;;;;5089624;28;20460;-74
2022/04/08 12:35:46;;;;;;;7.05;4.00;;;8.90;99.90;;;;;;5078869;28;20028;-73
2022/04/08 12:38:19;;;;;;;5.72;4.00;;;8.90;99.90;;;;;;5089350;28;20066;-72
2022/04/08 12:40:48;;;;;;;7.18;4.50;;;8.90;99.90;;;;;;5090965;28;20077;-72
2022/04/08 12:43:14;;;;;;;8.52;4.00;;;8.90;99.90;;;;;;5085536;28;20042;-72
2022/04/08 12:45:40;;;;;;;8.95;4.43;;;8.80;99.90;;;;;;5088226;28;20085;-74
2022/04/08 12:48:07;;;;;;;9.13;4.30;;;8.70;99.90;;;;;;5090434;28;20032;-75
2022/04/08 12:50:32;;;;;;;8.55;4.32;;;8.70;99.90;;;;;;5095767;28;20020;-74
2022/04/08 12:53:00;;;;;;;6.55;4.03;;;8.70;99.90;;;;;;5095805;28;20024;-74
2022/04/08 12:55:26;;;;;;;7.38;4.13;;;8.70;99.90;;;;;;5073992;28;20038;-73